createdAt,value
2019-03-23T00:00:14.764Z,97803.81
2019-03-23T00:02:40.602Z,97798.56
2019-03-23T00:05:06.660Z,97798.56
2019-03-23T00:07:32.492Z,97800.41
2019-03-23T00:09:58.811Z,97796.73
2019-03-23T00:12:24.671Z,97801.97
2019-03-23T00:14:50.488Z,97805.13
2019-03-23T00:17:16.321Z,97807.79
2019-03-23T00:19:42.245Z,97806.48
2019-03-23T00:22:08.087Z,97815.02
2019-03-23T00:24:33.893Z,97811.77
2019-03-23T00:26:59.721Z,97806.11
2019-03-23T00:29:25.583Z,97802.52
2019-03-23T00:31:51.391Z,97803.30
2019-03-23T00:34:17.227Z,97803.46
2019-03-23T00:36:43.069Z,97797.50
2019-03-23T00:39:08.895Z,97797.45
2019-03-23T00:41:34.722Z,97792.19
2019-03-23T00:44:00.576Z,97798.06
2019-03-23T00:46:26.424Z,97790.24
2019-03-23T00:48:52.266Z,97789.47
2019-03-23T00:51:18.103Z,97786.84
2019-03-23T00:53:43.916Z,97788.81
2019-03-23T00:56:09.766Z,97786.86
2019-03-23T00:58:35.578Z,97787.59
2019-03-23T01:01:01.430Z,97789.06
2019-03-23T01:03:27.248Z,97785.00
2019-03-23T01:05:53.097Z,97778.81
2019-03-23T01:08:18.930Z,97776.05
2019-03-23T01:10:44.754Z,97776.75
2019-03-23T01:13:10.591Z,97772.47
2019-03-23T01:15:36.403Z,97773.66
2019-03-23T01:18:02.214Z,97763.16
2019-03-23T01:20:28.105Z,97759.90
2019-03-23T01:22:53.906Z,97757.90
2019-03-23T01:25:20.913Z,97753.05
2019-03-23T01:27:46.761Z,97760.14
2019-03-23T01:30:13.288Z,97762.33
2019-03-23T01:32:39.107Z,97752.75
2019-03-23T01:35:05.829Z,97754.98
2019-03-23T01:37:31.667Z,97757.00
2019-03-23T01:39:57.492Z,97743.73
2019-03-23T01:42:23.341Z,97754.29
2019-03-23T01:44:49.418Z,97753.76
2019-03-23T01:47:15.277Z,97755.06
2019-03-23T01:49:41.101Z,97756.14
2019-03-23T01:52:06.902Z,97753.19
2019-03-23T01:54:32.748Z,97752.84
2019-03-23T01:56:58.574Z,97751.66
2019-03-23T01:59:24.425Z,97741.78
2019-03-23T02:01:50.250Z,97747.80
2019-03-23T02:04:16.091Z,97744.44
2019-03-23T02:06:41.908Z,97745.02
2019-03-23T02:09:07.774Z,97738.19
2019-03-23T02:11:33.809Z,97736.48
2019-03-23T02:13:59.642Z,97739.14
2019-03-23T02:16:25.485Z,97746.45
2019-03-23T02:18:51.324Z,97746.22
2019-03-23T02:21:17.161Z,97747.41
2019-03-23T02:23:42.974Z,97746.09
2019-03-23T02:26:08.811Z,97749.56
2019-03-23T02:28:34.640Z,97746.59
2019-03-23T02:31:00.494Z,97745.72
2019-03-23T02:33:26.324Z,97741.85
2019-03-23T02:35:52.147Z,97739.33
2019-03-23T02:38:17.995Z,97741.20
2019-03-23T02:40:43.818Z,97746.98
2019-03-23T02:43:09.665Z,97744.51
2019-03-23T02:45:35.521Z,97748.16
2019-03-23T02:48:01.346Z,97745.03
2019-03-23T02:50:27.159Z,97751.41
2019-03-23T02:52:53.005Z,97754.56
2019-03-23T02:55:18.848Z,97750.66
2019-03-23T02:57:44.680Z,97747.53
2019-03-23T03:00:13.103Z,97747.22
2019-03-23T03:02:38.951Z,97744.35
2019-03-23T03:05:07.840Z,97752.17
2019-03-23T03:07:41.742Z,97752.36
2019-03-23T03:10:02.718Z,97748.12
2019-03-23T03:12:28.557Z,97750.66
2019-03-23T03:14:54.408Z,97748.02
2019-03-23T03:17:20.223Z,97740.08
2019-03-23T03:19:46.180Z,97740.58
2019-03-23T03:22:11.987Z,97743.63
2019-03-23T03:24:37.815Z,97740.44
2019-03-23T03:27:03.656Z,97737.64
2019-03-23T03:29:29.479Z,97738.75
2019-03-23T03:31:55.335Z,97742.07
2019-03-23T03:34:21.227Z,97740.08
2019-03-23T03:36:47.050Z,97738.58
2019-03-23T03:39:12.886Z,97745.59
2019-03-23T03:41:38.722Z,97743.78
2019-03-23T03:44:04.545Z,97752.76
2019-03-23T03:46:30.479Z,97748.66
2019-03-23T03:48:56.295Z,97747.38
2019-03-23T03:51:22.102Z,97741.26
2019-03-23T03:53:47.920Z,97744.00
2019-03-23T03:56:13.761Z,97745.28
2019-03-23T03:58:39.587Z,97742.80
2019-03-23T04:01:05.440Z,97743.65
2019-03-23T04:03:31.263Z,97730.16
2019-03-23T04:05:57.101Z,97731.55
2019-03-23T04:08:22.916Z,97728.59
2019-03-23T04:10:49.029Z,97725.59
2019-03-23T04:13:14.860Z,97725.08
2019-03-23T04:15:40.671Z,97730.66
2019-03-23T04:18:06.524Z,97721.69
2019-03-23T04:20:32.393Z,97728.95
2019-03-23T04:22:58.241Z,97726.16
2019-03-23T04:25:24.077Z,97726.93
2019-03-23T04:27:49.925Z,97731.63
2019-03-23T04:30:15.844Z,97719.02
2019-03-23T04:32:41.680Z,97718.31
2019-03-23T04:35:07.805Z,97718.23
2019-03-23T04:37:33.643Z,97719.27
2019-03-23T04:39:59.489Z,97724.19
2019-03-23T04:42:25.309Z,97723.43
2019-03-23T04:44:51.151Z,97717.60
2019-03-23T04:47:17.012Z,97714.07
2019-03-23T04:49:42.883Z,97722.19
2019-03-23T04:52:08.714Z,97724.52
2019-03-23T04:54:34.557Z,97719.92
2019-03-23T04:57:00.389Z,97720.93
2019-03-23T04:59:26.256Z,97723.09
2019-03-23T05:01:52.067Z,97723.80
2019-03-23T05:04:17.898Z,97725.29
2019-03-23T05:06:43.729Z,97729.78
2019-03-23T05:09:09.552Z,97731.39
2019-03-23T05:11:35.392Z,97736.57
2019-03-23T05:14:01.209Z,97737.62
2019-03-23T05:16:27.033Z,97743.41
2019-03-23T05:18:52.882Z,97740.14
2019-03-23T05:21:18.735Z,97736.59
2019-03-23T05:23:45.868Z,97739.90
2019-03-23T05:26:11.817Z,97750.61
2019-03-23T05:28:37.643Z,97743.91
2019-03-23T05:31:03.467Z,97743.48
2019-03-23T05:33:29.289Z,97746.59
2019-03-23T05:35:55.134Z,97749.44
2019-03-23T05:38:20.963Z,97753.34
2019-03-23T05:40:46.779Z,97746.27
2019-03-23T05:43:12.625Z,97750.88
2019-03-23T05:45:38.444Z,97756.75
2019-03-23T05:48:04.302Z,97750.37
2019-03-23T05:50:30.117Z,97752.70
2019-03-23T05:52:55.964Z,97754.11
2019-03-23T05:55:21.782Z,97758.38
2019-03-23T05:57:47.605Z,97761.31
2019-03-23T06:00:15.121Z,97767.55
2019-03-23T06:02:40.958Z,97765.33
2019-03-23T06:05:06.866Z,97762.04
2019-03-23T06:07:32.681Z,97763.86
2019-03-23T06:09:58.503Z,97759.97
2019-03-23T06:12:24.319Z,97760.66
2019-03-23T06:14:50.160Z,97762.72
2019-03-23T06:17:15.996Z,97757.31
2019-03-23T06:19:41.902Z,97757.25
2019-03-23T06:22:07.714Z,97762.81
2019-03-23T06:24:33.527Z,97751.88
2019-03-23T06:26:59.366Z,97763.05
2019-03-23T06:29:25.197Z,97761.05
2019-03-23T06:31:51.034Z,97760.33
2019-03-23T06:34:16.860Z,97764.95
2019-03-23T06:36:42.695Z,97762.25
2019-03-23T06:39:08.538Z,97757.30
2019-03-23T06:41:34.377Z,97757.81
2019-03-23T06:44:00.203Z,97755.94
2019-03-23T06:46:26.036Z,97754.61
2019-03-23T06:48:51.870Z,97758.72
2019-03-23T06:51:17.696Z,97765.66
2019-03-23T06:53:43.511Z,97763.70
2019-03-23T06:56:09.366Z,97762.48
2019-03-23T06:58:35.209Z,97763.36
2019-03-23T07:01:01.037Z,97766.91
2019-03-23T07:03:26.848Z,97770.98
2019-03-23T07:05:52.653Z,97778.19
2019-03-23T07:08:18.484Z,97772.28
2019-03-23T07:10:44.293Z,97773.64
2019-03-23T07:13:10.134Z,97777.98
2019-03-23T07:15:35.941Z,97788.77
2019-03-23T07:18:01.767Z,97782.99
2019-03-23T07:20:27.593Z,97783.53
2019-03-23T07:22:54.900Z,97783.47
2019-03-23T07:25:20.865Z,97784.94
2019-03-23T07:27:46.677Z,97784.94
2019-03-23T07:30:13.898Z,97786.60
2019-03-23T07:32:39.733Z,97787.44
2019-03-23T07:35:05.714Z,97787.62
2019-03-23T07:37:31.511Z,97788.78
2019-03-23T07:39:57.358Z,97791.39
2019-03-23T07:42:23.174Z,97794.72
2019-03-23T07:44:49.018Z,97791.02
2019-03-23T07:47:14.851Z,97797.59
2019-03-23T07:49:40.683Z,97791.41
2019-03-23T07:52:06.540Z,97795.37
2019-03-23T07:54:32.457Z,97795.43
2019-03-23T07:56:58.306Z,97791.20
2019-03-23T07:59:24.156Z,97793.84
2019-03-23T08:01:49.986Z,97791.80
2019-03-23T08:04:15.827Z,97791.34
2019-03-23T08:06:41.681Z,97788.95
2019-03-23T08:09:07.511Z,97791.59
2019-03-23T08:11:33.338Z,97788.64
2019-03-23T08:13:59.182Z,97783.02
2019-03-23T08:16:25.009Z,97783.76
2019-03-23T08:18:50.869Z,97780.66
2019-03-23T08:21:16.786Z,97784.58
2019-03-23T08:23:42.634Z,97780.06
2019-03-23T08:26:08.552Z,97779.53
2019-03-23T08:28:34.426Z,97783.36
2019-03-23T08:31:00.389Z,97774.22
2019-03-23T08:33:26.231Z,97774.17
2019-03-23T08:35:52.078Z,97771.39
2019-03-23T08:38:17.909Z,97767.94
2019-03-23T08:40:43.749Z,97763.72
2019-03-23T08:43:09.578Z,97762.02
2019-03-23T08:45:35.402Z,97766.70
2019-03-23T08:48:01.278Z,97762.77
2019-03-23T08:50:27.098Z,97759.81
2019-03-23T08:52:52.966Z,97759.75
2019-03-23T08:55:18.796Z,97754.37
2019-03-23T08:57:44.618Z,97753.09
2019-03-23T09:00:10.657Z,97754.17
2019-03-23T09:02:36.499Z,97751.50
2019-03-23T09:05:04.352Z,97751.50
2019-03-23T09:07:30.189Z,97747.66
2019-03-23T09:09:59.479Z,97750.92
2019-03-23T09:12:23.748Z,97753.96
2019-03-23T09:14:49.606Z,97756.86
2019-03-23T09:17:15.413Z,97758.28
2019-03-23T09:19:41.284Z,97766.92
2019-03-23T09:22:07.162Z,97760.36
2019-03-23T09:24:32.978Z,97763.20
2019-03-23T09:26:58.809Z,97765.08
2019-03-23T09:29:24.655Z,97757.84
2019-03-23T09:31:50.473Z,97760.98
2019-03-23T09:34:16.299Z,97759.83
2019-03-23T09:36:42.109Z,97758.25
2019-03-23T09:39:07.941Z,97763.88
2019-03-23T09:41:33.857Z,97764.06
2019-03-23T09:43:59.677Z,97758.23
2019-03-23T09:46:25.494Z,97764.09
2019-03-23T09:48:51.329Z,97758.43
2019-03-23T09:51:17.145Z,97755.51
2019-03-23T09:53:42.955Z,97753.08
2019-03-23T09:56:08.796Z,97744.84
2019-03-23T09:58:34.616Z,97748.42
2019-03-23T10:01:00.471Z,97736.94
2019-03-23T10:03:26.281Z,97738.98
2019-03-23T10:05:52.095Z,97738.00
2019-03-23T10:08:17.920Z,97733.84
2019-03-23T10:10:43.730Z,97732.36
2019-03-23T10:13:09.553Z,97733.04
2019-03-23T10:15:35.360Z,97735.03
2019-03-23T10:18:01.699Z,97733.47
2019-03-23T10:20:27.597Z,97734.34
2019-03-23T10:22:53.480Z,97733.20
2019-03-23T10:25:19.250Z,97734.60
2019-03-23T10:27:45.084Z,97728.33
2019-03-23T10:30:11.081Z,97726.97
2019-03-23T10:32:36.892Z,97729.59
2019-03-23T10:35:05.023Z,97730.16
2019-03-23T10:37:30.832Z,97728.27
2019-03-23T10:39:56.649Z,97717.26
2019-03-23T10:42:22.470Z,97725.47
2019-03-23T10:44:48.309Z,97715.03
2019-03-23T10:47:14.115Z,97720.64
2019-03-23T10:49:39.967Z,97720.55
2019-03-23T10:52:05.797Z,97718.20
2019-03-23T10:54:31.622Z,97709.57
2019-03-23T10:56:57.428Z,97713.37
2019-03-23T10:59:23.289Z,97715.73
2019-03-23T11:01:49.116Z,97707.17
2019-03-23T11:04:14.921Z,97710.97
2019-03-23T11:06:40.775Z,97703.95
2019-03-23T11:09:06.679Z,97698.56
2019-03-23T11:11:32.506Z,97701.39
2019-03-23T11:13:58.320Z,97697.06
2019-03-23T11:16:24.149Z,97702.97
2019-03-23T11:18:49.955Z,97708.88
2019-03-23T11:21:15.902Z,97707.09
2019-03-23T11:23:41.721Z,97703.64
2019-03-23T11:26:07.545Z,97706.31
2019-03-23T11:28:33.365Z,97704.75
2019-03-23T11:30:59.190Z,97710.88
2019-03-23T11:33:25.007Z,97711.17
2019-03-23T11:35:57.757Z,97710.00
2019-03-23T11:38:18.551Z,97716.78
2019-03-23T11:40:52.741Z,97711.87
2019-03-23T11:43:12.120Z,97709.78
2019-03-23T11:45:37.956Z,97712.76
2019-03-23T11:48:03.785Z,97708.59
2019-03-23T11:50:29.636Z,97707.05
2019-03-23T11:52:55.445Z,97705.00
2019-03-23T11:55:21.277Z,97708.22
2019-03-23T11:57:47.105Z,97698.78
2019-03-23T12:00:13.840Z,97703.44
2019-03-23T12:02:39.659Z,97689.56
2019-03-23T12:05:07.065Z,97695.81
2019-03-23T12:07:32.892Z,97695.54
2019-03-23T12:09:58.706Z,97691.55
2019-03-23T12:12:24.532Z,97690.20
2019-03-23T12:14:50.369Z,97683.69
2019-03-23T12:17:16.203Z,97679.33
2019-03-23T12:19:42.017Z,97681.94
2019-03-23T12:22:07.873Z,97681.59
2019-03-23T12:24:33.677Z,97677.98
2019-03-23T12:26:59.503Z,97675.56
2019-03-23T12:29:25.354Z,97677.88
2019-03-23T12:31:51.168Z,97682.17
2019-03-23T12:34:17.108Z,97670.80
2019-03-23T12:36:43.327Z,97677.68
2019-03-23T12:39:09.141Z,97673.91
2019-03-23T12:41:34.958Z,97669.56
2019-03-23T12:44:00.788Z,97668.27
2019-03-23T12:46:26.621Z,97671.01
2019-03-23T12:48:52.469Z,97664.91
2019-03-23T12:51:18.284Z,97658.78
2019-03-23T12:53:44.136Z,97658.94
2019-03-23T12:56:09.971Z,97660.00
2019-03-23T12:58:35.809Z,97658.28
2019-03-23T13:01:01.670Z,97654.92
2019-03-23T13:03:27.659Z,97660.59
2019-03-23T13:05:53.477Z,97663.42
2019-03-23T13:08:19.299Z,97658.69
2019-03-23T13:10:45.128Z,97655.35
2019-03-23T13:13:10.970Z,97653.75
2019-03-23T13:15:36.805Z,97650.02
2019-03-23T13:18:03.199Z,97640.22
2019-03-23T13:20:29.259Z,97641.56
2019-03-23T13:22:55.159Z,97640.16
2019-03-23T13:25:20.965Z,97637.52
2019-03-23T13:27:46.801Z,97637.73
2019-03-23T13:30:15.041Z,97638.27
2019-03-23T13:32:40.853Z,97635.74
2019-03-23T13:35:06.894Z,97628.97
2019-03-23T13:37:32.728Z,97631.97
2019-03-23T13:39:58.576Z,97630.00
2019-03-23T13:42:24.414Z,97627.12
2019-03-23T13:44:50.235Z,97620.37
2019-03-23T13:47:16.086Z,97620.84
2019-03-23T13:49:41.933Z,97625.19
2019-03-23T13:52:07.890Z,97623.66
2019-03-23T13:54:33.700Z,97621.75
2019-03-23T13:56:59.785Z,97614.18
2019-03-23T13:59:25.717Z,97610.14
2019-03-23T14:01:51.934Z,97606.78
2019-03-23T14:04:17.792Z,97606.23
2019-03-23T14:06:43.789Z,97608.64
2019-03-23T14:09:09.860Z,97606.59
2019-03-23T14:11:35.921Z,97598.62
2019-03-23T14:14:02.029Z,97602.16
2019-03-23T14:16:27.856Z,97600.07
2019-03-23T14:18:53.736Z,97599.48
2019-03-23T14:21:19.511Z,97596.62
2019-03-23T14:23:45.585Z,97588.61
2019-03-23T14:26:11.406Z,97591.28
2019-03-23T14:28:37.214Z,97588.39
2019-03-23T14:31:03.044Z,97582.59
2019-03-23T14:33:28.863Z,97580.14
2019-03-23T14:35:54.675Z,97577.53
2019-03-23T14:38:20.519Z,97578.17
2019-03-23T14:40:46.330Z,97581.30
2019-03-23T14:43:12.146Z,97578.53
2019-03-23T14:45:37.994Z,97579.72
2019-03-23T14:48:03.835Z,97576.54
2019-03-23T14:50:29.698Z,97573.56
2019-03-23T14:52:55.538Z,97572.94
2019-03-23T14:55:21.652Z,97574.98
2019-03-23T14:57:47.509Z,97574.06
2019-03-23T15:00:17.123Z,97580.69
2019-03-23T15:02:42.946Z,97584.21
2019-03-23T15:05:08.809Z,97578.02
2019-03-23T15:07:34.726Z,97575.49
2019-03-23T15:10:00.539Z,97576.25
2019-03-23T15:12:26.378Z,97577.83
2019-03-23T15:14:52.196Z,97575.73
2019-03-23T15:17:18.012Z,97573.72
2019-03-23T15:19:43.940Z,97570.52
2019-03-23T15:22:09.832Z,97570.73
2019-03-23T15:24:35.669Z,97567.62
2019-03-23T15:27:01.487Z,97567.94
2019-03-23T15:29:27.304Z,97575.30
2019-03-23T15:31:53.145Z,97571.08
2019-03-23T15:34:18.971Z,97567.41
2019-03-23T15:36:44.796Z,97573.80
2019-03-23T15:39:10.624Z,97572.87
2019-03-23T15:41:36.463Z,97570.78
2019-03-23T15:44:02.296Z,97564.52
2019-03-23T15:46:28.142Z,97570.32
2019-03-23T15:48:53.971Z,97573.37
2019-03-23T15:51:19.839Z,97573.36
2019-03-23T15:53:45.654Z,97577.67
2019-03-23T15:56:11.463Z,97573.12
2019-03-23T15:58:37.314Z,97566.84
2019-03-23T16:01:03.146Z,97571.58
2019-03-23T16:03:28.988Z,97572.61
2019-03-23T16:05:54.816Z,97572.73
2019-03-23T16:08:20.643Z,97569.47
2019-03-23T16:10:46.475Z,97572.83
2019-03-23T16:13:12.301Z,97573.34
2019-03-23T16:15:38.183Z,97572.01
2019-03-23T16:18:04.003Z,97573.04
2019-03-23T16:20:29.828Z,97570.92
2019-03-23T16:22:55.679Z,97570.58
2019-03-23T16:25:21.521Z,97574.10
2019-03-23T16:27:47.369Z,97573.13
2019-03-23T16:30:17.043Z,97575.14
2019-03-23T16:32:42.883Z,97570.67
2019-03-23T16:35:09.538Z,97572.81
2019-03-23T16:37:35.382Z,97574.48
2019-03-23T16:40:02.735Z,97572.61
2019-03-23T16:42:28.568Z,97572.38
2019-03-23T16:44:54.395Z,97578.42
2019-03-23T16:47:20.253Z,97576.16
2019-03-23T16:49:46.344Z,97576.94
2019-03-23T16:52:12.181Z,97571.24
2019-03-23T16:54:38.003Z,97573.92
2019-03-23T16:57:03.828Z,97572.14
2019-03-23T16:59:29.655Z,97577.25
2019-03-23T17:01:55.519Z,97571.70
2019-03-23T17:04:21.465Z,97574.27
2019-03-23T17:06:47.545Z,97571.99
2019-03-23T17:09:13.427Z,97576.33
2019-03-23T17:11:39.303Z,97576.55
2019-03-23T17:14:05.218Z,97577.75
2019-03-23T17:16:31.194Z,97572.97
2019-03-23T17:18:57.026Z,97573.27
2019-03-23T17:21:25.189Z,97577.45
2019-03-23T17:23:51.056Z,97570.88
2019-03-23T17:26:17.333Z,97569.41
2019-03-23T17:28:43.787Z,97568.81
2019-03-23T17:31:09.715Z,97568.86
2019-03-23T17:33:35.595Z,97574.38
2019-03-23T17:36:01.450Z,97573.75
2019-03-23T17:38:27.427Z,97575.29
2019-03-23T17:40:53.321Z,97574.73
2019-03-23T17:43:19.182Z,97578.96
2019-03-23T17:45:45.134Z,97574.52
2019-03-23T17:48:10.963Z,97574.83
2019-03-23T17:50:36.825Z,97577.31
2019-03-23T17:53:02.621Z,97577.89
2019-03-23T17:55:28.492Z,97585.43
2019-03-23T17:57:54.347Z,97543.14
2019-03-23T18:00:20.440Z,97586.13
2019-03-23T18:02:46.280Z,97587.55
2019-03-23T18:05:14.221Z,97588.05
2019-03-23T18:07:40.257Z,97591.27
2019-03-23T18:10:06.976Z,97594.42
2019-03-23T18:12:32.816Z,97596.86
2019-03-23T18:14:58.635Z,97599.77
2019-03-23T18:17:24.490Z,97603.29
2019-03-23T18:19:50.310Z,97599.69
2019-03-23T18:22:16.158Z,97602.54
2019-03-23T18:24:41.990Z,97600.59
2019-03-23T18:27:07.964Z,97600.02
2019-03-23T18:29:33.821Z,97613.30
2019-03-23T18:31:59.768Z,97609.98
2019-03-23T18:34:25.611Z,97616.28
2019-03-23T18:36:52.062Z,97623.38
2019-03-23T18:39:17.917Z,97620.92
2019-03-23T18:41:43.912Z,97615.12
2019-03-23T18:44:16.090Z,97617.17
2019-03-23T18:46:37.960Z,97619.88
2019-03-23T18:49:03.888Z,97613.91
2019-03-23T18:51:29.862Z,97619.72
2019-03-23T18:53:55.920Z,97621.84
2019-03-23T18:56:21.774Z,97616.96
2019-03-23T18:58:47.717Z,97620.84
2019-03-23T19:01:13.654Z,97627.10
2019-03-23T19:03:40.497Z,97624.36
2019-03-23T19:06:06.692Z,97626.47
2019-03-23T19:08:32.599Z,97626.17
2019-03-23T19:10:58.465Z,97627.77
2019-03-23T19:13:24.466Z,97622.66
2019-03-23T19:15:50.304Z,97620.33
2019-03-23T19:18:16.181Z,97629.27
2019-03-23T19:20:42.044Z,97637.93
2019-03-23T19:23:07.891Z,97636.52
2019-03-23T19:25:33.743Z,97636.64
2019-03-23T19:27:59.650Z,97636.16
2019-03-23T19:30:25.720Z,97638.77
2019-03-23T19:32:51.652Z,97597.39
2019-03-23T19:35:17.492Z,97641.85
2019-03-23T19:37:43.382Z,97651.63
2019-03-23T19:40:09.405Z,97650.21
2019-03-23T19:42:35.255Z,97647.72
2019-03-23T19:45:01.233Z,97650.65
2019-03-23T19:47:27.140Z,97659.11
2019-03-23T19:49:53.069Z,97656.05
2019-03-23T19:52:18.949Z,97664.30
2019-03-23T19:54:44.828Z,97663.27
2019-03-23T19:57:10.793Z,97665.38
2019-03-23T19:59:36.639Z,97665.63
2019-03-23T20:02:02.594Z,97665.45
2019-03-23T20:04:28.435Z,97670.80
2019-03-23T20:06:54.378Z,97668.95
2019-03-23T20:09:20.233Z,97670.06
2019-03-23T20:11:46.124Z,97665.90
2019-03-23T20:14:12.032Z,97670.66
2019-03-23T20:16:37.886Z,97669.69
2019-03-23T20:19:03.837Z,97665.97
2019-03-23T20:21:29.715Z,97672.18
2019-03-23T20:23:55.562Z,97668.06
2019-03-23T20:26:21.416Z,97671.40
2019-03-23T20:28:47.325Z,97672.58
2019-03-23T20:31:13.212Z,97664.16
2019-03-23T20:33:39.055Z,97671.06
2019-03-23T20:36:04.978Z,97668.12
2019-03-23T20:38:30.825Z,97669.73
2019-03-23T20:40:56.708Z,97669.64
2019-03-23T20:43:22.590Z,97671.50
2019-03-23T20:45:48.472Z,97679.47
2019-03-23T20:48:14.435Z,97676.98
2019-03-23T20:50:40.739Z,97681.48
2019-03-23T20:53:06.662Z,97677.85
2019-03-23T20:55:32.644Z,97679.02
2019-03-23T20:57:58.467Z,97675.25
2019-03-23T21:00:24.309Z,97672.95
2019-03-23T21:02:50.408Z,97674.14
2019-03-23T21:05:16.383Z,97676.44
2019-03-23T21:07:42.265Z,97676.44
2019-03-23T21:10:08.349Z,97674.78
2019-03-23T21:12:34.215Z,97677.45
2019-03-23T21:15:00.040Z,97677.45
2019-03-23T21:17:25.880Z,97677.94
2019-03-23T21:19:51.794Z,97679.06
2019-03-23T21:22:20.648Z,97684.92
2019-03-23T21:24:47.215Z,97682.41
2019-03-23T21:27:24.867Z,97683.77
2019-03-23T21:29:50.806Z,97686.79
2019-03-23T21:32:16.728Z,97686.79
2019-03-23T21:34:42.515Z,97689.77
2019-03-23T21:37:09.235Z,97677.84
2019-03-23T21:39:35.314Z,97677.84
2019-03-23T21:42:01.174Z,97676.77
2019-03-23T21:44:31.314Z,97671.56
2019-03-23T21:46:54.868Z,97665.12
2019-03-23T21:49:20.724Z,97665.12
2019-03-23T21:51:46.649Z,97674.44
2019-03-23T21:54:12.448Z,97675.83
2019-03-23T21:56:38.288Z,97675.00
2019-03-23T21:59:04.226Z,97676.68
2019-03-23T22:01:30.053Z,97679.36
2019-03-23T22:03:55.899Z,97676.81
2019-03-23T22:06:21.730Z,97677.82
2019-03-23T22:08:47.562Z,97679.23
2019-03-23T22:11:13.676Z,97673.94
2019-03-23T22:13:39.571Z,97677.70
2019-03-23T22:16:05.659Z,97677.70
2019-03-23T22:18:31.478Z,97673.88
2019-03-23T22:20:57.347Z,97668.97
2019-03-23T22:23:23.196Z,97677.70
2019-03-23T22:25:49.063Z,97673.77
2019-03-23T22:28:14.873Z,97682.23
2019-03-23T22:30:40.719Z,97681.00
2019-03-23T22:33:06.555Z,97675.73
2019-03-23T22:35:32.402Z,97673.88
2019-03-23T22:37:58.225Z,97680.58
2019-03-23T22:40:24.066Z,97679.00
2019-03-23T22:42:49.913Z,97676.11
2019-03-23T22:45:15.754Z,97673.73
2019-03-23T22:47:41.722Z,97665.32
2019-03-23T22:50:08.144Z,97669.09
2019-03-23T22:52:34.030Z,97656.02
2019-03-23T22:54:59.919Z,97656.02
2019-03-23T22:57:25.775Z,97664.43
2019-03-23T22:59:51.641Z,97664.38
2019-03-23T23:02:17.484Z,97671.55
2019-03-23T23:04:43.311Z,97665.23
2019-03-23T23:07:09.201Z,97667.94
2019-03-23T23:09:35.014Z,97664.03
2019-03-23T23:12:00.991Z,97658.22
2019-03-23T23:14:26.818Z,97655.61
2019-03-23T23:16:52.687Z,97654.08
2019-03-23T23:19:18.590Z,97645.33
2019-03-23T23:21:44.497Z,97645.05
2019-03-23T23:24:10.340Z,97645.49
2019-03-23T23:26:36.151Z,97644.54
2019-03-23T23:29:02.109Z,97649.62
2019-03-23T23:31:27.936Z,97643.59
2019-03-23T23:33:53.799Z,97644.11
2019-03-23T23:36:19.613Z,97644.64
2019-03-23T23:38:45.428Z,97642.91
2019-03-23T23:41:11.370Z,97647.16
2019-03-23T23:43:37.181Z,97651.62
2019-03-23T23:46:03.107Z,97646.95
2019-03-23T23:48:28.954Z,97647.52
2019-03-23T23:50:54.803Z,97643.02
2019-03-23T23:53:20.644Z,97644.53
2019-03-23T23:55:46.475Z,97643.23
2019-03-23T23:58:12.328Z,97646.63
